Boylston, New York
Current Conditions -  °F | °C
As of 10:04 PM on Saturday 22 Nov 2014 (Local Time) from KART Reporting Station
Overcast Overcast  
Wind Chill: 36°   Ceiling: 1400
Heat Index: 42°   Visibility: 9mi
Dew Point: 36°   Wind: 12mph
Humidity: 79%   Direction: 190°S
Pressure: 29.95"   Gusts: 18mph
Location:  43.6481°N, 75.9881°W
Report Text: KART 230304Z AUTO 19010G16KT 9SM OVC014 06/02 A2995 RMK AO2 T00560022
Loading
Personal Weather Stations






























Interactive Weather Map New forecast layout! Learn more

10-Day Weather Forecast

Advertisements
Track Severe Weather on mobile